Time;durP1;ratioP1;P1;durP2;ratioP2;P2;SDS_P1;SDS_P2;PMS_P1;PMS_P2;Temp;Humidity;BMP_temperature;BMP_pressure;BME280_temperature;BME280_humidity;BME280_pressure;Samples;Min_cycle;Max_cycle;Signal;HPM_P1;HPM_P2
2024/01/07 00:02:12;;;;;;;49.67;22.23;;;;;;;;;;5022665;28;20204;-76
2024/01/07 00:04:39;;;;;;;52.87;23.90;;;;;;;;;;5029661;28;20255;-76
2024/01/07 00:07:05;;;;;;;43.80;20.63;;;;;;;;;;5025758;28;20186;-76
2024/01/07 00:09:30;;;;;;;44.00;20.50;;;;;;;;;;5011490;28;20612;-76
2024/01/07 00:11:56;;;;;;;42.37;19.57;;;;;;;;;;5011418;28;20198;-75
2024/01/07 00:14:21;;;;;;;42.90;19.97;;;;;;;;;;5033282;28;20190;-76
2024/01/07 00:16:47;;;;;;;44.90;20.17;;;;;;;;;;5031658;28;20197;-76
2024/01/07 00:19:12;;;;;;;38.90;19.03;;;;;;;;;;4996376;28;20264;-76
2024/01/07 00:21:38;;;;;;;44.50;20.07;;;;;;;;;;5030778;28;20233;-76
2024/01/07 00:24:03;;;;;;;40.40;18.40;;;;;;;;;;5014151;28;20190;-76
2024/01/07 00:26:29;;;;;;;43.13;18.83;;;;;;;;;;5022497;28;20221;-75
2024/01/07 00:28:54;;;;;;;40.43;18.47;;;;;;;;;;4993149;28;20234;-76
2024/01/07 00:31:19;;;;;;;41.77;20.20;;;;;;;;;;5022619;28;20213;-76
2024/01/07 00:33:45;;;;;;;37.97;18.00;;;;;;;;;;5008984;28;20194;-76
2024/01/07 00:36:10;;;;;;;42.33;18.73;;;;;;;;;;5022824;28;20556;-76
2024/01/07 00:38:36;;;;;;;41.23;18.50;;;;;;;;;;5003345;28;20190;-76
2024/01/07 00:41:01;;;;;;;35.97;18.27;;;;;;;;;;5012040;28;20281;-76
2024/01/07 00:43:27;;;;;;;40.07;19.20;;;;;;;;;;5000600;28;20194;-76
2024/01/07 00:45:52;;;;;;;46.03;19.47;;;;;;;;;;5024111;28;20214;-76
2024/01/07 00:48:17;;;;;;;37.57;18.80;;;;;;;;;;5026937;28;20277;-75
2024/01/07 00:50:43;;;;;;;38.83;19.07;;;;;;;;;;5030735;28;20701;-76
2024/01/07 00:53:08;;;;;;;37.90;19.43;;;;;;;;;;5030957;28;20194;-76
2024/01/07 00:55:35;;;;;;;39.50;18.50;;;;;;;;;;5013934;28;20210;-76
2024/01/07 00:58:01;;;;;;;36.67;17.53;;;;;;;;;;5029799;28;20198;-76
2024/01/07 01:00:28;;;;;;;36.50;17.10;;;;;;;;;;5028196;28;20564;-75
2024/01/07 01:02:54;;;;;;;35.63;16.87;;;;;;;;;;5029033;28;20194;-76
2024/01/07 01:05:20;;;;;;;36.27;17.57;;;;;;;;;;5024955;28;20637;-76
2024/01/07 01:07:45;;;;;;;31.40;16.97;;;;;;;;;;5029753;28;20278;-75
2024/01/07 01:10:10;;;;;;;34.07;17.63;;;;;;;;;;5009247;28;20594;-76
2024/01/07 01:12:36;;;;;;;38.40;17.30;;;;;;;;;;4998230;28;20240;-76
2024/01/07 01:15:01;;;;;;;35.73;17.80;;;;;;;;;;5012534;28;20241;-76
2024/01/07 01:17:27;;;;;;;36.80;18.73;;;;;;;;;;5012433;28;20224;-76
2024/01/07 01:19:52;;;;;;;38.33;19.37;;;;;;;;;;5021951;28;20272;-76
2024/01/07 01:22:17;;;;;;;35.57;18.67;;;;;;;;;;5005338;28;20555;-76
2024/01/07 01:24:45;;;;;;;38.43;19.50;;;;;;;;;;5005760;28;20222;-76
2024/01/07 01:27:12;;;;;;;36.30;20.00;;;;;;;;;;5014750;28;20191;-76
2024/01/07 01:29:37;;;;;;;35.27;18.87;;;;;;;;;;5003688;28;20195;-76
2024/01/07 01:32:03;;;;;;;37.77;20.03;;;;;;;;;;5005749;28;20206;-76
2024/01/07 01:34:28;;;;;;;36.70;18.73;;;;;;;;;;5007096;28;20193;-76
2024/01/07 01:36:53;;;;;;;45.73;20.80;;;;;;;;;;5010095;28;20565;-76
2024/01/07 01:39:19;;;;;;;45.30;20.07;;;;;;;;;;5000028;28;20265;-76
2024/01/07 01:41:44;;;;;;;41.90;20.50;;;;;;;;;;5005988;28;20230;-76
2024/01/07 01:44:10;;;;;;;37.47;18.57;;;;;;;;;;5007167;28;20198;-76
2024/01/07 01:46:35;;;;;;;40.13;19.73;;;;;;;;;;5009645;28;20252;-76
2024/01/07 01:49:01;;;;;;;40.67;20.37;;;;;;;;;;5008938;28;20191;-76
2024/01/07 01:51:27;;;;;;;40.73;18.63;;;;;;;;;;5009622;28;20310;-76
2024/01/07 01:53:54;;;;;;;33.47;18.67;;;;;;;;;;5009658;28;20194;-76
2024/01/07 01:56:20;;;;;;;33.47;18.40;;;;;;;;;;5021085;28;20194;-76
2024/01/07 01:58:46;;;;;;;35.33;18.43;;;;;;;;;;5010104;28;20191;-75
2024/01/07 02:01:12;;;;;;;34.27;18.70;;;;;;;;;;5010060;28;20278;-76
2024/01/07 02:03:38;;;;;;;31.47;17.90;;;;;;;;;;5001758;28;20203;-76
2024/01/07 02:06:03;;;;;;;32.10;17.17;;;;;;;;;;5008097;28;20222;-75
2024/01/07 02:08:29;;;;;;;32.73;17.80;;;;;;;;;;5009137;28;20539;-76
2024/01/07 02:10:55;;;;;;;30.83;16.67;;;;;;;;;;5015798;28;20284;-76
2024/01/07 02:13:20;;;;;;;27.00;15.93;;;;;;;;;;4996927;28;20758;-76
2024/01/07 02:15:46;;;;;;;28.37;16.50;;;;;;;;;;5010236;28;20271;-76
2024/01/07 02:18:12;;;;;;;29.03;15.97;;;;;;;;;;5008901;28;20433;-76
2024/01/07 02:20:37;;;;;;;26.27;15.80;;;;;;;;;;5012911;28;20357;-76
2024/01/07 02:23:04;;;;;;;30.00;15.87;;;;;;;;;;5020314;28;20276;-76
2024/01/07 02:25:34;;;;;;;27.40;15.87;;;;;;;;;;5022361;28;20221;-76
2024/01/07 02:27:59;;;;;;;30.53;16.87;;;;;;;;;;5012168;28;20205;-76
2024/01/07 02:30:25;;;;;;;25.93;14.97;;;;;;;;;;5010312;28;20198;-76
2024/01/07 02:32:50;;;;;;;26.97;15.57;;;;;;;;;;5027561;28;20201;-76
2024/01/07 02:35:15;;;;;;;24.43;14.10;;;;;;;;;;5016088;28;20213;-76
2024/01/07 02:37:41;;;;;;;24.47;14.37;;;;;;;;;;5027430;28;20251;-75
2024/01/07 02:40:07;;;;;;;26.93;14.93;;;;;;;;;;5027832;28;20269;-76
2024/01/07 02:42:32;;;;;;;23.33;14.40;;;;;;;;;;5028818;28;20190;-76
2024/01/07 02:44:58;;;;;;;26.87;15.13;;;;;;;;;;5011376;28;20613;-76
2024/01/07 02:47:23;;;;;;;25.07;14.40;;;;;;;;;;4993695;28;20186;-76
2024/01/07 02:49:48;;;;;;;24.57;14.20;;;;;;;;;;5008919;28;20198;-75
2024/01/07 02:52:14;;;;;;;23.47;13.53;;;;;;;;;;5026823;28;20665;-76
2024/01/07 02:54:39;;;;;;;24.47;13.67;;;;;;;;;;5029158;28;20222;-75
2024/01/07 02:57:05;;;;;;;22.17;13.03;;;;;;;;;;5011434;28;20187;-76
2024/01/07 02:59:30;;;;;;;25.63;14.57;;;;;;;;;;5028502;28;20269;-76
2024/01/07 03:01:56;;;;;;;25.40;13.93;;;;;;;;;;5030864;28;20204;-76
2024/01/07 03:04:21;;;;;;;23.83;14.30;;;;;;;;;;5010481;28;20214;-76
2024/01/07 03:06:47;;;;;;;23.23;13.67;;;;;;;;;;5026987;28;20201;-76
2024/01/07 03:09:12;;;;;;;22.27;13.47;;;;;;;;;;5024824;28;20669;-75
2024/01/07 03:11:40;;;;;;;26.70;14.00;;;;;;;;;;5028238;28;20205;-76
2024/01/07 03:14:05;;;;;;;25.63;13.50;;;;;;;;;;5028889;28;20696;-76
2024/01/07 03:16:31;;;;;;;22.73;12.93;;;;;;;;;;5010587;28;20234;-76
2024/01/07 03:18:56;;;;;;;24.30;13.23;;;;;;;;;;5027727;28;20212;-76
2024/01/07 03:21:23;;;;;;;18.37;11.27;;;;;;;;;;5010015;28;20229;-75
2024/01/07 03:23:50;;;;;;;23.67;12.43;;;;;;;;;;5028063;28;20194;-75
2024/01/07 03:26:16;;;;;;;24.13;12.70;;;;;;;;;;5020134;28;20356;-76
2024/01/07 03:28:42;;;;;;;23.17;12.07;;;;;;;;;;5025619;28;20201;-76
2024/01/07 03:31:19;;;;;;;21.23;12.37;;;;;;;;;;5014888;28;20197;-76
2024/01/07 03:33:45;;;;;;;22.70;12.60;;;;;;;;;;5019944;28;20194;-75
2024/01/07 03:36:12;;;;;;;21.43;11.73;;;;;;;;;;5010115;28;20193;-75
2024/01/07 03:38:39;;;;;;;19.07;11.20;;;;;;;;;;5028185;28;20194;-75
2024/01/07 03:41:05;;;;;;;20.43;12.03;;;;;;;;;;5008611;28;20185;-76
2024/01/07 03:43:31;;;;;;;23.77;13.37;;;;;;;;;;5024537;28;20467;-76
2024/01/07 03:45:57;;;;;;;17.80;11.57;;;;;;;;;;5023619;28;20268;-75
2024/01/07 03:48:22;;;;;;;21.57;12.20;;;;;;;;;;5027986;28;20443;-75
2024/01/07 03:50:47;;;;;;;20.60;12.43;;;;;;;;;;5022562;28;20301;-76
2024/01/07 03:53:13;;;;;;;21.40;12.47;;;;;;;;;;5010109;28;20182;-76
2024/01/07 03:55:39;;;;;;;19.10;11.17;;;;;;;;;;5027161;28;20182;-76
2024/01/07 03:58:05;;;;;;;20.97;11.67;;;;;;;;;;5026808;28;20247;-76
2024/01/07 04:00:31;;;;;;;21.03;12.53;;;;;;;;;;4994063;28;20602;-76
2024/01/07 04:02:56;;;;;;;21.50;12.50;;;;;;;;;;5024672;28;20190;-76
2024/01/07 04:05:22;;;;;;;22.80;11.90;;;;;;;;;;5005040;28;20203;-76
2024/01/07 04:07:47;;;;;;;20.17;11.53;;;;;;;;;;5026286;28;20205;-76
2024/01/07 04:10:13;;;;;;;22.57;12.37;;;;;;;;;;5026352;28;20249;-76
2024/01/07 04:12:38;;;;;;;18.60;11.13;;;;;;;;;;5015731;28;20244;-76
2024/01/07 04:15:04;;;;;;;20.10;11.10;;;;;;;;;;5029807;28;20252;-76
2024/01/07 04:17:30;;;;;;;17.63;11.33;;;;;;;;;;5008640;28;20692;-76
2024/01/07 04:19:55;;;;;;;19.70;11.37;;;;;;;;;;5010600;28;20206;-76
2024/01/07 04:22:21;;;;;;;15.90;10.13;;;;;;;;;;5003048;28;20240;-76
2024/01/07 04:24:46;;;;;;;18.80;11.23;;;;;;;;;;5011952;28;20238;-75
2024/01/07 04:27:12;;;;;;;21.43;11.33;;;;;;;;;;5011736;28;20194;-77
2024/01/07 04:29:37;;;;;;;17.00;10.90;;;;;;;;;;5011225;28;20201;-76
2024/01/07 04:32:03;;;;;;;19.57;10.80;;;;;;;;;;5011379;28;20206;-76
2024/01/07 04:34:28;;;;;;;18.50;11.17;;;;;;;;;;5010060;28;20703;-75
2024/01/07 04:36:54;;;;;;;17.50;9.70;;;;;;;;;;5011480;28;20250;-76
2024/01/07 04:39:19;;;;;;;17.17;11.30;;;;;;;;;;5009179;28;20738;-75
2024/01/07 04:41:45;;;;;;;19.83;11.33;;;;;;;;;;5007974;28;20198;-75
2024/01/07 04:44:10;;;;;;;19.67;11.40;;;;;;;;;;5008309;28;20684;-75
2024/01/07 04:46:39;;;;;;;18.67;11.13;;;;;;;;;;5012703;28;20285;-75
2024/01/07 04:49:05;;;;;;;19.33;11.83;;;;;;;;;;4982400;28;20707;-75
2024/01/07 04:51:36;;;;;;;18.33;11.53;;;;;;;;;;5022749;28;20191;-76
2024/01/07 04:54:02;;;;;;;21.00;11.70;;;;;;;;;;5007332;28;20191;-75
2024/01/07 04:56:27;;;;;;;18.83;10.90;;;;;;;;;;5009095;28;20914;-75
2024/01/07 04:58:52;;;;;;;21.63;12.37;;;;;;;;;;5008142;28;20655;-75
2024/01/07 05:01:18;;;;;;;20.60;12.33;;;;;;;;;;5018391;28;20650;-75
2024/01/07 05:03:43;;;;;;;19.00;12.00;;;;;;;;;;5006380;28;20271;-75
2024/01/07 05:06:09;;;;;;;18.90;11.00;;;;;;;;;;5001425;28;20606;-75
2024/01/07 05:08:37;;;;;;;18.80;11.03;;;;;;;;;;5024099;28;20275;-75
2024/01/07 05:11:02;;;;;;;17.23;10.63;;;;;;;;;;5009228;28;20604;-76
2024/01/07 05:13:28;;;;;;;16.67;10.23;;;;;;;;;;5009535;28;20203;-75
2024/01/07 05:15:53;;;;;;;17.20;10.53;;;;;;;;;;5008340;28;20198;-75
2024/01/07 05:18:24;;;;;;;19.23;10.83;;;;;;;;;;5009537;28;20265;-75
2024/01/07 05:20:50;;;;;;;16.67;10.07;;;;;;;;;;5016774;28;20234;-75
2024/01/07 05:23:15;;;;;;;17.70;10.30;;;;;;;;;;5012585;28;20205;-75
2024/01/07 05:25:45;;;;;;;18.47;10.50;;;;;;;;;;5026569;28;20217;-75
2024/01/07 05:28:11;;;;;;;17.33;9.70;;;;;;;;;;4994657;28;20248;-75
2024/01/07 05:30:38;;;;;;;20.70;10.13;;;;;;;;;;5009160;28;20222;-75
2024/01/07 05:33:04;;;;;;;13.77;8.80;;;;;;;;;;5027401;28;20221;-75
2024/01/07 05:35:30;;;;;;;14.47;9.23;;;;;;;;;;5012563;28;20228;-75
2024/01/07 05:37:55;;;;;;;15.97;9.47;;;;;;;;;;5027529;28;20646;-75
2024/01/07 05:40:21;;;;;;;17.13;9.70;;;;;;;;;;5012110;28;20194;-75
2024/01/07 05:42:46;;;;;;;13.43;9.40;;;;;;;;;;5030050;28;20658;-75
2024/01/07 05:45:12;;;;;;;18.37;9.90;;;;;;;;;;5009374;28;20337;-75
2024/01/07 05:47:37;;;;;;;14.43;8.83;;;;;;;;;;5033397;28;20204;-75
2024/01/07 05:50:03;;;;;;;14.77;9.70;;;;;;;;;;5022029;28;20186;-75
2024/01/07 05:52:29;;;;;;;15.07;8.93;;;;;;;;;;5009488;28;20190;-75
2024/01/07 05:54:54;;;;;;;14.53;9.40;;;;;;;;;;5019454;28;20240;-75
2024/01/07 05:57:19;;;;;;;13.40;9.10;;;;;;;;;;5025963;28;20679;-75
2024/01/07 05:59:45;;;;;;;13.03;8.60;;;;;;;;;;5028378;28;20233;-75
2024/01/07 06:02:12;;;;;;;13.73;8.67;;;;;;;;;;5010559;28;20265;-76
2024/01/07 06:04:38;;;;;;;13.53;8.63;;;;;;;;;;5002638;28;20232;-75
2024/01/07 06:07:03;;;;;;;13.60;8.47;;;;;;;;;;5021407;28;20182;-75
2024/01/07 06:09:29;;;;;;;11.50;7.90;;;;;;;;;;5010769;28;20699;-75
2024/01/07 06:11:55;;;;;;;13.83;8.13;;;;;;;;;;5021146;28;20256;-75
2024/01/07 06:14:21;;;;;;;13.23;9.03;;;;;;;;;;5026093;28;20199;-75
2024/01/07 06:16:46;;;;;;;14.17;8.97;;;;;;;;;;5019971;28;20196;-75
2024/01/07 06:19:12;;;;;;;11.67;7.97;;;;;;;;;;5026968;28;20293;-75
2024/01/07 06:21:37;;;;;;;11.97;7.40;;;;;;;;;;5007267;28;20306;-74
2024/01/07 06:24:04;;;;;;;11.50;7.73;;;;;;;;;;5003831;28;20293;-75
2024/01/07 06:26:29;;;;;;;14.30;8.37;;;;;;;;;;5012564;28;20182;-75
2024/01/07 06:28:55;;;;;;;11.70;7.37;;;;;;;;;;5003949;28;20670;-74
2024/01/07 06:31:20;;;;;;;11.10;7.27;;;;;;;;;;4990638;28;20689;-74
2024/01/07 06:33:45;;;;;;;13.80;7.20;;;;;;;;;;4988830;28;20186;-74
2024/01/07 06:36:11;;;;;;;12.90;7.70;;;;;;;;;;5004182;28;20206;-75
2024/01/07 06:38:36;;;;;;;12.43;7.57;;;;;;;;;;4987680;28;20610;-74
2024/01/07 06:41:04;;;;;;;10.70;7.40;;;;;;;;;;5003309;28;20191;-74
2024/01/07 06:43:30;;;;;;;12.27;7.97;;;;;;;;;;5006686;28;20256;-74
2024/01/07 06:45:55;;;;;;;14.53;8.13;;;;;;;;;;5005196;28;20753;-74
2024/01/07 06:48:21;;;;;;;9.10;5.90;;;;;;;;;;5001563;28;20241;-75
2024/01/07 06:50:46;;;;;;;12.77;7.87;;;;;;;;;;5006843;28;20186;-74
2024/01/07 06:53:12;;;;;;;15.07;8.37;;;;;;;;;;5003515;28;20190;-74
2024/01/07 06:55:37;;;;;;;13.13;7.57;;;;;;;;;;5003016;28;20184;-74
2024/01/07 06:58:02;;;;;;;11.43;8.00;;;;;;;;;;5020024;28;20188;-74
2024/01/07 07:00:28;;;;;;;14.27;8.50;;;;;;;;;;5007278;28;20221;-74
2024/01/07 07:02:53;;;;;;;11.37;6.50;;;;;;;;;;5003685;28;20599;-74
2024/01/07 07:05:19;;;;;;;13.70;7.17;;;;;;;;;;5006383;28;20203;-74
2024/01/07 07:07:45;;;;;;;10.50;6.67;;;;;;;;;;5011338;28;20568;-75
2024/01/07 07:10:11;;;;;;;11.50;7.60;;;;;;;;;;5002868;28;20265;-76
2024/01/07 07:12:36;;;;;;;13.17;7.33;;;;;;;;;;5020779;28;20297;-75
2024/01/07 07:15:01;;;;;;;11.83;7.10;;;;;;;;;;5006791;28;20179;-75
2024/01/07 07:17:27;;;;;;;11.77;7.23;;;;;;;;;;5008337;28;20198;-75
2024/01/07 07:19:52;;;;;;;11.17;7.53;;;;;;;;;;5003503;28;20234;-75
2024/01/07 07:22:18;;;;;;;12.67;7.63;;;;;;;;;;5017694;28;20234;-75
2024/01/07 07:24:43;;;;;;;11.97;7.30;;;;;;;;;;5021334;28;20211;-76
2024/01/07 07:27:09;;;;;;;10.57;6.83;;;;;;;;;;5005993;28;20183;-75
2024/01/07 07:29:34;;;;;;;10.10;6.77;;;;;;;;;;5004023;28;20245;-75
2024/01/07 07:32:00;;;;;;;12.53;7.80;;;;;;;;;;5003899;28;20191;-74
2024/01/07 07:34:25;;;;;;;13.60;8.07;;;;;;;;;;5005563;28;20186;-74
2024/01/07 07:36:51;;;;;;;15.30;7.33;;;;;;;;;;5024151;28;20190;-74
2024/01/07 07:39:17;;;;;;;15.60;7.57;;;;;;;;;;5003648;28;20182;-75
2024/01/07 07:41:42;;;;;;;13.53;5.73;;;;;;;;;;5007509;28;20244;-76
2024/01/07 07:44:08;;;;;;;12.57;6.93;;;;;;;;;;5007851;28;20619;-75
2024/01/07 07:46:33;;;;;;;12.93;7.00;;;;;;;;;;5006532;28;20191;-75
2024/01/07 07:48:58;;;;;;;13.17;7.27;;;;;;;;;;5005523;28;20190;-75
2024/01/07 07:51:24;;;;;;;13.80;6.00;;;;;;;;;;5006655;28;20574;-76
2024/01/07 07:53:49;;;;;;;12.97;6.27;;;;;;;;;;5004434;28;20546;-75
2024/01/07 07:56:15;;;;;;;9.73;5.60;;;;;;;;;;5004735;28;20182;-75
2024/01/07 07:58:40;;;;;;;11.37;6.33;;;;;;;;;;5007956;28;20191;-75
2024/01/07 08:01:06;;;;;;;9.17;5.63;;;;;;;;;;5006822;28;20195;-76
2024/01/07 08:03:32;;;;;;;13.07;6.30;;;;;;;;;;5022673;28;20190;-77
2024/01/07 08:05:58;;;;;;;9.87;5.50;;;;;;;;;;5002955;28;20286;-75
2024/01/07 08:08:23;;;;;;;8.37;4.87;;;;;;;;;;5010158;28;20325;-75
2024/01/07 08:10:49;;;;;;;11.13;5.70;;;;;;;;;;5007298;28;20202;-75
2024/01/07 08:13:14;;;;;;;8.10;4.97;;;;;;;;;;5010438;28;20225;-75
2024/01/07 08:15:39;;;;;;;9.77;5.27;;;;;;;;;;5009447;28;20186;-75
2024/01/07 08:18:05;;;;;;;11.10;4.63;;;;;;;;;;5014945;28;20221;-75
2024/01/07 08:20:30;;;;;;;7.40;4.70;;;;;;;;;;5017953;28;20633;-75
2024/01/07 08:22:56;;;;;;;8.70;4.47;;;;;;;;;;5028743;28;20212;-75
2024/01/07 08:25:23;;;;;;;9.37;5.00;;;;;;;;;;5029334;28;20693;-75
2024/01/07 08:27:49;;;;;;;8.97;4.17;;;;;;;;;;5012426;28;20190;-75
2024/01/07 08:30:14;;;;;;;7.10;4.50;;;;;;;;;;5014248;28;20205;-75
2024/01/07 08:32:40;;;;;;;7.17;4.10;;;;;;;;;;5014170;28;20190;-75
2024/01/07 08:35:06;;;;;;;6.87;4.27;;;;;;;;;;5029644;28;20273;-75
2024/01/07 08:37:31;;;;;;;14.17;3.93;;;;;;;;;;5029055;28;20215;-75
2024/01/07 08:39:59;;;;;;;7.73;4.20;;;;;;;;;;5028478;28;20661;-75
2024/01/07 08:42:26;;;;;;;6.40;3.30;;;;;;;;;;5031740;28;20200;-75
2024/01/07 08:44:51;;;;;;;8.53;3.87;;;;;;;;;;5029128;28;20615;-74
2024/01/07 08:47:17;;;;;;;6.67;3.07;;;;;;;;;;5011001;28;20243;-74
2024/01/07 08:49:43;;;;;;;7.20;3.37;;;;;;;;;;5029646;28;20243;-75
2024/01/07 08:52:08;;;;;;;5.13;3.23;;;;;;;;;;5022811;28;20213;-75
2024/01/07 08:54:34;;;;;;;4.77;2.77;;;;;;;;;;5010140;28;20202;-75
2024/01/07 08:57:00;;;;;;;6.00;3.27;;;;;;;;;;5010796;28;20273;-74
2024/01/07 08:59:25;;;;;;;4.97;2.80;;;;;;;;;;5022365;28;20707;-74
2024/01/07 09:01:51;;;;;;;6.07;3.10;;;;;;;;;;5017578;28;20194;-75
2024/01/07 09:04:17;;;;;;;5.07;2.90;;;;;;;;;;5008676;28;20186;-75
2024/01/07 09:06:46;;;;;;;5.77;3.23;;;;;;;;;;5029093;28;20190;-75
2024/01/07 09:09:11;;;;;;;3.67;2.47;;;;;;;;;;5011671;28;20193;-74
2024/01/07 09:11:37;;;;;;;4.13;2.60;;;;;;;;;;5011975;28;20255;-75
2024/01/07 09:14:03;;;;;;;7.27;2.77;;;;;;;;;;5030094;28;20201;-75
2024/01/07 09:16:29;;;;;;;4.37;2.40;;;;;;;;;;5019448;28;20191;-75
2024/01/07 09:18:54;;;;;;;4.90;2.40;;;;;;;;;;5006862;28;20285;-75
2024/01/07 09:21:20;;;;;;;4.30;2.60;;;;;;;;;;5028842;28;20680;-74
2024/01/07 09:23:45;;;;;;;3.80;2.40;;;;;;;;;;5027860;28;20242;-74
2024/01/07 09:26:11;;;;;;;5.23;2.70;;;;;;;;;;5028142;28;20209;-75
2024/01/07 09:28:36;;;;;;;4.13;2.27;;;;;;;;;;5029415;28;20194;-75
2024/01/07 09:31:02;;;;;;;4.63;2.23;;;;;;;;;;5026757;28;20183;-74
2024/01/07 09:33:27;;;;;;;8.60;2.70;;;;;;;;;;5040426;28;20221;-74
2024/01/07 09:35:54;;;;;;;4.00;2.50;;;;;;;;;;5000507;28;20493;-74
2024/01/07 09:38:19;;;;;;;7.50;2.40;;;;;;;;;;5018528;28;20178;-74
2024/01/07 09:40:45;;;;;;;6.43;2.77;;;;;;;;;;5028235;28;20762;-74
2024/01/07 09:43:11;;;;;;;6.40;2.27;;;;;;;;;;5029133;28;20265;-74
2024/01/07 09:45:39;;;;;;;4.83;2.37;;;;;;;;;;5030049;28;20221;-74
2024/01/07 09:48:05;;;;;;;4.13;2.00;;;;;;;;;;5026168;28;20187;-74
2024/01/07 09:50:31;;;;;;;4.37;2.43;;;;;;;;;;4994629;28;20182;-74
2024/01/07 09:53:01;;;;;;;4.30;2.30;;;;;;;;;;4999977;28;20191;-74
2024/01/07 09:55:40;;;;;;;6.43;2.17;;;;;;;;;;5027445;28;20211;-74
2024/01/07 09:58:05;;;;;;;3.70;2.00;;;;;;;;;;5022138;28;20658;-75
2024/01/07 10:00:31;;;;;;;4.00;1.87;;;;;;;;;;5006390;28;20241;-74
2024/01/07 10:02:57;;;;;;;3.57;1.87;;;;;;;;;;5019127;28;20281;-74
2024/01/07 10:05:22;;;;;;;4.10;2.17;;;;;;;;;;5008161;28;20206;-74
2024/01/07 10:07:48;;;;;;;3.97;1.63;;;;;;;;;;5026243;28;20277;-74
2024/01/07 10:10:17;;;;;;;3.30;1.73;;;;;;;;;;5025953;28;20309;-74
2024/01/07 10:12:46;;;;;;;3.53;1.83;;;;;;;;;;5027235;28;20213;-74
2024/01/07 10:15:12;;;;;;;3.37;1.80;;;;;;;;;;5025445;28;20650;-74
2024/01/07 10:17:39;;;;;;;2.50;1.47;;;;;;;;;;5027213;28;20243;-74
2024/01/07 10:20:09;;;;;;;3.03;1.83;;;;;;;;;;5010260;28;20202;-74
2024/01/07 10:22:34;;;;;;;2.03;1.53;;;;;;;;;;5008518;28;20194;-74
2024/01/07 10:24:59;;;;;;;3.17;1.70;;;;;;;;;;5009852;28;20215;-74
2024/01/07 10:27:25;;;;;;;3.30;1.70;;;;;;;;;;5010154;28;20183;-74
2024/01/07 10:29:50;;;;;;;5.37;2.33;;;;;;;;;;5010416;28;20223;-74
2024/01/07 10:32:19;;;;;;;3.93;1.73;;;;;;;;;;5009830;28;20191;-74
2024/01/07 10:34:47;;;;;;;3.07;1.60;;;;;;;;;;5009748;28;20213;-74
2024/01/07 10:37:13;;;;;;;2.00;1.50;;;;;;;;;;4991292;28;20261;-74
2024/01/07 10:39:38;;;;;;;3.27;1.40;;;;;;;;;;5018560;28;20179;-74
2024/01/07 10:42:05;;;;;;;10.87;1.60;;;;;;;;;;5003115;28;20545;-74
2024/01/07 10:44:32;;;;;;;5.60;1.63;;;;;;;;;;5008197;28;20219;-75
2024/01/07 10:46:58;;;;;;;2.20;1.67;;;;;;;;;;4992669;28;20190;-74
2024/01/07 10:49:25;;;;;;;2.60;1.20;;;;;;;;;;5008808;28;20183;-75
2024/01/07 10:52:04;;;;;;;3.50;1.87;;;;;;;;;;5009598;28;20198;-75
2024/01/07 10:54:31;;;;;;;3.10;1.57;;;;;;;;;;4994387;28;20194;-75
2024/01/07 10:56:59;;;;;;;4.47;1.50;;;;;;;;;;5007519;28;20179;-74
2024/01/07 10:59:28;;;;;;;3.63;1.27;;;;;;;;;;5009730;28;20677;-74
2024/01/07 11:01:53;;;;;;;4.33;1.80;;;;;;;;;;5009285;28;20179;-75
2024/01/07 11:04:45;;;;;;;8.00;1.40;;;;;;;;;;5009596;28;20574;-74
2024/01/07 11:07:37;;;;;;;3.93;1.57;;;;;;;;;;5008139;28;20294;-75
2024/01/07 11:10:06;;;;;;;1.80;1.20;;;;;;;;;;5007360;28;20536;-74
2024/01/07 11:12:32;;;;;;;1.67;1.20;;;;;;;;;;5007231;28;20288;-74
2024/01/07 11:14:58;;;;;;;3.77;1.60;;;;;;;;;;5024619;28;20801;-74
2024/01/07 11:17:40;;;;;;;2.27;1.50;;;;;;;;;;5009467;28;20454;-74
2024/01/07 11:20:17;;;;;;;4.33;1.50;;;;;;;;;;5024918;28;20182;-74
2024/01/07 11:22:42;;;;;;;3.13;1.43;;;;;;;;;;4989468;28;20206;-74
2024/01/07 11:25:33;;;;;;;5.23;1.67;;;;;;;;;;4989572;28;20223;-74
2024/01/07 11:28:01;;;;;;;3.37;1.37;;;;;;;;;;4989259;28;20195;-74
2024/01/07 11:30:27;;;;;;;2.97;1.30;;;;;;;;;;4984336;28;20192;-74
2024/01/07 11:32:59;;;;;;;2.90;1.20;;;;;;;;;;4991625;28;20200;-74
2024/01/07 11:35:55;;;;;;;2.67;1.67;;;;;;;;;;5003537;28;20549;-74
2024/01/07 11:38:21;;;;;;;2.37;1.40;;;;;;;;;;4988450;28;20191;-74
2024/01/07 11:40:48;;;;;;;3.17;1.47;;;;;;;;;;4988946;28;20753;-74
2024/01/07 11:43:14;;;;;;;1.70;1.17;;;;;;;;;;4989192;28;20196;-74
2024/01/07 11:45:39;;;;;;;2.63;1.33;;;;;;;;;;4989172;28;20718;-74
2024/01/07 11:48:05;;;;;;;1.83;1.20;;;;;;;;;;4989059;28;20207;-74
2024/01/07 11:50:31;;;;;;;5.43;1.70;;;;;;;;;;4990050;28;20698;-74
2024/01/07 11:52:56;;;;;;;5.27;1.47;;;;;;;;;;4983515;28;20278;-75
2024/01/07 11:55:23;;;;;;;3.17;1.40;;;;;;;;;;4980191;28;20195;-74
2024/01/07 11:57:48;;;;;;;4.27;1.30;;;;;;;;;;4988604;28;20206;-74
2024/01/07 12:00:14;;;;;;;5.33;1.30;;;;;;;;;;4987858;28;20191;-74
2024/01/07 12:02:40;;;;;;;2.10;1.20;;;;;;;;;;4986901;28;20222;-74
2024/01/07 12:05:05;;;;;;;4.50;1.37;;;;;;;;;;4988264;28;20298;-74
2024/01/07 12:07:31;;;;;;;3.10;1.30;;;;;;;;;;4989624;28;20218;-74
2024/01/07 12:09:57;;;;;;;2.27;1.33;;;;;;;;;;4988548;28;20299;-74
2024/01/07 12:12:23;;;;;;;2.70;1.20;;;;;;;;;;4984088;28;20203;-74
2024/01/07 12:14:49;;;;;;;9.00;1.40;;;;;;;;;;4998106;28;20218;-74
2024/01/07 12:17:17;;;;;;;3.00;0.80;;;;;;;;;;4987435;28;20300;-73
2024/01/07 12:19:43;;;;;;;2.17;1.20;;;;;;;;;;4990652;28;20752;-75
2024/01/07 12:22:09;;;;;;;3.40;1.20;;;;;;;;;;5013956;28;20299;-75
2024/01/07 12:24:35;;;;;;;5.10;1.40;;;;;;;;;;4988496;28;20194;-75
2024/01/07 12:27:05;;;;;;;1.60;1.00;;;;;;;;;;5024005;28;20194;-74
2024/01/07 12:29:30;;;;;;;3.27;1.20;;;;;;;;;;5026088;28;20186;-75
2024/01/07 12:31:56;;;;;;;3.07;1.20;;;;;;;;;;5024953;28;20186;-74
2024/01/07 12:34:23;;;;;;;1.80;1.10;;;;;;;;;;5025951;28;20198;-75
2024/01/07 12:36:49;;;;;;;1.60;1.00;;;;;;;;;;5025324;28;20190;-75
2024/01/07 12:39:14;;;;;;;1.23;0.80;;;;;;;;;;5027997;28;20197;-75
2024/01/07 12:41:40;;;;;;;2.50;1.30;;;;;;;;;;4325360;28;10000815;-75
2024/01/07 12:44:05;;;;;;;1.90;0.70;;;;;;;;;;5030107;28;20574;-74
2024/01/07 12:46:31;;;;;;;4.50;1.20;;;;;;;;;;5004789;28;20595;-74
2024/01/07 12:48:57;;;;;;;3.27;1.17;;;;;;;;;;4994262;28;20743;-75
2024/01/07 12:51:22;;;;;;;1.87;1.13;;;;;;;;;;5020821;28;20198;-74
2024/01/07 12:53:48;;;;;;;1.90;1.20;;;;;;;;;;5015391;28;20182;-75
2024/01/07 12:56:13;;;;;;;2.90;1.30;;;;;;;;;;5027567;28;20190;-75
2024/01/07 12:58:38;;;;;;;2.13;1.10;;;;;;;;;;5020313;28;20240;-75
2024/01/07 13:01:04;;;;;;;2.53;0.93;;;;;;;;;;5009686;28;20269;-75
2024/01/07 13:03:29;;;;;;;1.87;0.77;;;;;;;;;;5028941;28;20200;-75
2024/01/07 13:05:55;;;;;;;4.20;1.40;;;;;;;;;;5027747;28;20595;-74
2024/01/07 13:08:25;;;;;;;1.47;0.90;;;;;;;;;;5021072;28;20194;-74
2024/01/07 13:10:52;;;;;;;3.40;1.20;;;;;;;;;;5016164;28;20226;-75
2024/01/07 13:13:17;;;;;;;1.30;1.00;;;;;;;;;;5019515;28;20194;-74
2024/01/07 13:15:43;;;;;;;0.80;0.80;;;;;;;;;;5025010;28;20195;-74
2024/01/07 13:18:09;;;;;;;3.03;1.47;;;;;;;;;;4994584;28;20213;-74
2024/01/07 13:20:39;;;;;;;3.83;1.00;;;;;;;;;;5020848;28;20226;-74
2024/01/07 13:23:05;;;;;;;2.27;1.00;;;;;;;;;;5024249;28;20192;-74
2024/01/07 13:25:31;;;;;;;2.47;0.70;;;;;;;;;;5008298;28;20714;-74
2024/01/07 13:27:56;;;;;;;2.40;0.97;;;;;;;;;;4993341;28;20260;-73
2024/01/07 13:30:21;;;;;;;2.57;0.90;;;;;;;;;;5019147;28;20248;-73
2024/01/07 13:32:49;;;;;;;2.20;0.90;;;;;;;;;;5005858;28;20741;-74
2024/01/07 13:35:15;;;;;;;3.73;0.90;;;;;;;;;;5024653;28;20317;-74
2024/01/07 13:37:43;;;;;;;2.13;1.10;;;;;;;;;;5022685;28;20240;-74
2024/01/07 13:40:10;;;;;;;1.73;0.70;;;;;;;;;;5024885;28;20269;-74
2024/01/07 13:42:37;;;;;;;2.73;1.07;;;;;;;;;;5022029;28;20233;-74
2024/01/07 13:45:03;;;;;;;2.63;0.90;;;;;;;;;;5026180;28;20214;-74
2024/01/07 13:47:28;;;;;;;1.97;0.93;;;;;;;;;;5025628;28;20199;-73
2024/01/07 13:49:54;;;;;;;2.43;0.97;;;;;;;;;;5022865;28;20187;-73
2024/01/07 13:52:19;;;;;;;1.17;0.93;;;;;;;;;;5025874;28;20297;-73
2024/01/07 13:54:45;;;;;;;1.93;0.90;;;;;;;;;;5024852;28;20273;-73
2024/01/07 13:57:10;;;;;;;3.93;1.30;;;;;;;;;;5020739;28;20930;-74
2024/01/07 13:59:36;;;;;;;3.13;1.20;;;;;;;;;;5024729;28;20198;-74
2024/01/07 14:02:02;;;;;;;3.10;1.33;;;;;;;;;;5028365;28;20247;-74
2024/01/07 14:04:28;;;;;;;5.93;1.50;;;;;;;;;;5027755;28;20197;-73
2024/01/07 14:06:57;;;;;;;3.23;1.20;;;;;;;;;;5040523;28;20641;-74
2024/01/07 14:09:23;;;;;;;2.77;1.40;;;;;;;;;;5010760;28;20657;-74
2024/01/07 14:11:48;;;;;;;2.23;1.10;;;;;;;;;;5032389;28;20407;-73
2024/01/07 14:14:14;;;;;;;1.83;1.30;;;;;;;;;;5029732;28;20194;-73
2024/01/07 14:16:40;;;;;;;2.40;1.47;;;;;;;;;;5030203;28;20200;-73
2024/01/07 14:19:06;;;;;;;4.10;1.70;;;;;;;;;;5018671;28;20224;-73
2024/01/07 14:21:31;;;;;;;6.07;1.87;;;;;;;;;;5032495;28;20229;-73
2024/01/07 14:23:57;;;;;;;2.53;1.53;;;;;;;;;;4994934;28;20324;-74
2024/01/07 14:26:23;;;;;;;6.57;1.43;;;;;;;;;;5010806;28;20703;-73